createdAt,value
2023-01-28T00:02:01.303Z,3.96
2023-01-28T00:06:05.313Z,3.96
2023-01-28T00:10:07.124Z,3.96
2023-01-28T00:14:13.184Z,3.96
2023-01-28T00:18:14.833Z,3.96
2023-01-28T00:22:16.463Z,3.98
2023-01-28T00:26:18.698Z,3.95
2023-01-28T00:30:20.774Z,3.93
2023-01-28T00:34:22.386Z,3.93
2023-01-28T00:38:23.936Z,3.95
2023-01-28T00:42:25.517Z,3.96
2023-01-28T00:46:30.565Z,3.96
2023-01-28T00:50:32.239Z,3.95
2023-01-28T00:54:33.785Z,3.96
2023-01-28T00:58:35.362Z,3.96
2023-01-28T01:02:36.988Z,3.95
2023-01-28T01:06:41.052Z,3.96
2023-01-28T01:10:42.565Z,3.96
2023-01-28T01:14:44.127Z,3.96
2023-01-28T01:18:45.714Z,3.95
2023-01-28T01:22:47.401Z,3.93
2023-01-28T01:26:49.598Z,3.92
2023-01-28T01:30:58.796Z,3.90
2023-01-28T01:35:01.071Z,3.88
2023-01-28T01:39:02.666Z,3.88
2023-01-28T01:43:15.835Z,3.84
2023-01-28T01:47:18.731Z,3.84
2023-01-28T01:51:27.676Z,3.81
2023-01-28T01:55:35.753Z,3.81
2023-01-28T01:59:42.235Z,3.80
2023-01-28T02:04:04.742Z,3.82
2023-01-28T02:08:21.857Z,3.84
2023-01-28T02:12:29.124Z,3.84
2023-01-28T02:16:31.336Z,3.82
2023-01-28T02:21:01.949Z,3.86
2023-01-28T02:25:28.080Z,3.82
2023-01-28T02:30:03.213Z,3.84
2023-01-28T02:34:46.830Z,3.82
2023-01-28T02:38:50.273Z,3.81
2023-01-28T02:42:51.821Z,3.81
2023-01-28T02:47:11.976Z,3.78
2023-01-28T02:51:26.241Z,3.71
2023-01-28T02:56:32.586Z,3.63
2023-01-28T03:00:37.769Z,3.54
2023-01-28T03:04:50.576Z,3.50
2023-01-28T03:09:21.461Z,3.45
2023-01-28T03:13:41.380Z,3.44
2023-01-28T03:18:05.498Z,3.44
2023-01-28T03:22:25.698Z,3.44
2023-01-28T03:26:50.161Z,3.46
2023-01-28T03:31:21.215Z,3.45
2023-01-28T03:35:49.007Z,3.44
2023-01-28T03:39:50.721Z,3.42
2023-01-28T03:43:54.268Z,3.45
2023-01-28T03:47:55.911Z,3.45
2023-01-28T03:51:57.491Z,3.42
2023-01-28T03:55:59.405Z,3.45
2023-01-28T04:00:00.985Z,3.45
2023-01-28T04:04:03.072Z,3.46
2023-01-28T04:08:05.170Z,3.45
2023-01-28T04:12:24.609Z,3.49
2023-01-28T04:16:27.403Z,3.50
2023-01-28T04:20:29.555Z,3.46
2023-01-28T04:24:34.237Z,3.46
2023-01-28T04:28:36.004Z,3.46
2023-01-28T04:32:37.995Z,3.46
2023-01-28T04:36:59.914Z,3.46
2023-01-28T04:41:40.061Z,3.44
2023-01-28T04:45:57.049Z,3.44
2023-01-28T04:50:15.738Z,3.46
2023-01-28T04:54:34.816Z,3.46
2023-01-28T04:58:39.850Z,3.45
2023-01-28T05:02:47.127Z,3.46
2023-01-28T05:06:48.749Z,3.50
2023-01-28T05:10:57.597Z,3.50
2023-01-28T05:15:00.589Z,3.46
2023-01-28T05:19:03.029Z,3.50
2023-01-28T05:23:09.668Z,3.50
2023-01-28T05:27:23.683Z,3.49
2023-01-28T05:31:25.453Z,3.46
2023-01-28T05:35:27.478Z,3.50
2023-01-28T05:39:29.060Z,3.46
2023-01-28T05:43:30.725Z,3.46
2023-01-28T05:47:51.036Z,3.49
2023-01-28T05:52:15.348Z,3.46
2023-01-28T05:56:16.965Z,3.49
2023-01-28T06:00:19.036Z,3.49
2023-01-28T06:04:20.943Z,3.49
2023-01-28T06:08:23.301Z,3.45
2023-01-28T06:12:25.086Z,3.46
2023-01-28T06:16:52.141Z,3.49
2023-01-28T06:21:12.120Z,3.49
2023-01-28T06:25:13.944Z,3.49
2023-01-28T06:29:15.875Z,3.50
2023-01-28T06:33:18.347Z,3.52
2023-01-28T06:37:20.245Z,3.50
2023-01-28T06:41:22.127Z,3.52
2023-01-28T06:45:23.733Z,3.50
2023-01-28T06:49:25.387Z,3.50
2023-01-28T06:53:26.927Z,3.46
2023-01-28T06:57:28.562Z,3.46
2023-01-28T07:01:30.157Z,3.45
2023-01-28T07:05:32.198Z,3.39
2023-01-28T07:09:33.781Z,3.42
2023-01-28T07:13:35.646Z,3.41
2023-01-28T07:17:41.483Z,3.41
2023-01-28T07:21:43.032Z,3.41
2023-01-28T07:25:44.602Z,3.41
2023-01-28T07:29:46.193Z,3.39
2023-01-28T07:33:47.719Z,3.41
2023-01-28T07:37:57.132Z,3.41
2023-01-28T07:41:58.732Z,3.41
2023-01-28T07:46:13.870Z,3.37
2023-01-28T07:50:17.088Z,3.41
2023-01-28T07:54:18.972Z,3.41
2023-01-28T07:58:20.657Z,3.46
2023-01-28T08:02:22.390Z,3.52
2023-01-28T08:06:23.972Z,3.49
2023-01-28T08:10:25.707Z,3.53
2023-01-28T08:14:27.567Z,3.60
2023-01-28T08:18:29.223Z,3.62
2023-01-28T08:22:30.795Z,3.67
2023-01-28T08:26:32.316Z,3.70
2023-01-28T08:30:35.405Z,3.70
2023-01-28T08:34:36.936Z,3.77
2023-01-28T08:38:38.464Z,3.77
2023-01-28T08:42:39.966Z,3.78
2023-01-28T08:46:41.594Z,3.81
2023-01-28T08:50:43.567Z,3.82
2023-01-28T08:54:45.106Z,3.81
2023-01-28T08:58:46.668Z,3.84
2023-01-28T09:02:51.279Z,3.88
2023-01-28T09:06:53.993Z,3.90
2023-01-28T09:10:59.204Z,3.88
2023-01-28T09:15:00.749Z,3.96
2023-01-28T09:19:02.242Z,3.95
2023-01-28T09:23:03.869Z,4.00
2023-01-28T09:27:05.436Z,4.02
2023-01-28T09:31:12.073Z,4.07
2023-01-28T09:35:15.213Z,4.11
2023-01-28T09:39:16.734Z,4.14
2023-01-28T09:43:54.435Z,4.24
2023-01-28T09:48:00.172Z,4.34
2023-01-28T09:52:01.795Z,4.35
2023-01-28T09:56:08.290Z,4.35
2023-01-28T10:00:15.712Z,4.39
2023-01-28T10:04:43.966Z,4.39
2023-01-28T10:09:20.162Z,4.49
2023-01-28T10:13:39.871Z,4.61
2023-01-28T10:17:48.345Z,4.67
2023-01-28T10:21:56.067Z,4.72
2023-01-28T10:26:00.223Z,4.79
2023-01-28T10:30:25.684Z,4.84
2023-01-28T10:34:27.309Z,4.94
2023-01-28T10:38:31.273Z,4.93
2023-01-28T10:42:38.052Z,4.94
2023-01-28T10:46:41.404Z,5.01
2023-01-28T10:50:56.981Z,5.05
2023-01-28T10:55:06.749Z,5.09
2023-01-28T10:59:36.544Z,5.11
2023-01-28T11:03:38.586Z,5.14
2023-01-28T11:07:40.222Z,5.06
2023-01-28T11:11:41.790Z,5.12
2023-01-28T11:16:05.246Z,5.05
2023-01-28T11:20:21.022Z,4.93
2023-01-28T11:24:27.635Z,4.88
2023-01-28T11:28:30.493Z,4.88
2023-01-28T11:32:33.040Z,4.90
2023-01-28T11:36:35.464Z,4.86
2023-01-28T11:40:36.999Z,4.86
2023-01-28T11:44:39.174Z,4.86
2023-01-28T11:48:56.037Z,4.77
2023-01-28T11:53:08.007Z,4.83
2023-01-28T11:57:27.989Z,4.93
2023-01-28T12:02:10.039Z,4.94
2023-01-28T12:06:42.818Z,5.04
2023-01-28T12:10:53.965Z,5.05
2023-01-28T12:15:26.337Z,5.15
2023-01-28T12:19:36.388Z,5.22
2023-01-28T12:23:40.673Z,5.17
2023-01-28T12:28:16.213Z,5.20
2023-01-28T12:32:31.530Z,5.24
2023-01-28T12:36:46.853Z,5.22
2023-01-28T12:41:01.030Z,5.27
2023-01-28T12:45:19.064Z,5.24
2023-01-28T12:49:35.624Z,5.12
2023-01-28T12:53:43.444Z,5.11
2023-01-28T12:57:45.700Z,5.08
2023-01-28T13:02:11.623Z,5.02
2023-01-28T13:06:24.544Z,4.93
2023-01-28T13:10:35.348Z,4.87
2023-01-28T13:14:37.195Z,4.86
2023-01-28T13:18:43.951Z,4.80
2023-01-28T13:22:46.143Z,4.75
2023-01-28T13:26:57.820Z,4.72
2023-01-28T13:31:08.896Z,4.75
2023-01-28T13:35:53.138Z,4.68
2023-01-28T13:40:07.083Z,4.71
2023-01-28T13:44:35.020Z,4.68
2023-01-28T13:48:39.209Z,4.62
2023-01-28T13:52:50.582Z,4.59
2023-01-28T13:57:01.134Z,4.56
2023-01-28T14:01:13.132Z,4.56
2023-01-28T14:05:22.730Z,4.49
2023-01-28T14:09:55.216Z,4.47
2023-01-28T14:13:59.610Z,4.47
2023-01-28T14:18:01.848Z,4.42
2023-01-28T14:22:10.552Z,4.43
2023-01-28T14:26:46.817Z,4.39
2023-01-28T14:31:00.631Z,4.42
2023-01-28T14:35:08.794Z,4.39
2023-01-28T14:39:19.529Z,4.39
2023-01-28T14:43:24.835Z,4.35
2023-01-28T14:47:40.024Z,4.31
2023-01-28T14:52:19.384Z,4.29
2023-01-28T14:56:43.248Z,4.32
2023-01-28T15:00:54.612Z,4.32
2023-01-28T15:05:08.277Z,4.26
2023-01-28T15:09:13.339Z,4.18
2023-01-28T15:13:34.249Z,4.17
2023-01-28T15:17:35.927Z,4.11
2023-01-28T15:21:38.264Z,4.11
2023-01-28T15:25:39.832Z,4.04
2023-01-28T15:29:41.430Z,4.00
2023-01-28T15:33:43.054Z,3.96
2023-01-28T15:37:44.647Z,3.92
2023-01-28T15:41:51.568Z,3.96
2023-01-28T15:45:55.983Z,3.89
2023-01-28T15:50:01.274Z,3.88
2023-01-28T15:54:08.910Z,3.86
2023-01-28T15:58:28.343Z,3.81
2023-01-28T16:02:31.535Z,3.77
2023-01-28T16:06:38.990Z,3.80
2023-01-28T16:10:40.609Z,3.78
2023-01-28T16:14:53.707Z,3.75
2023-01-28T16:18:56.042Z,3.74
2023-01-28T16:23:03.951Z,3.77
2023-01-28T16:27:19.174Z,3.77
2023-01-28T16:31:21.409Z,3.72
2023-01-28T16:35:42.941Z,3.74
2023-01-28T16:39:51.938Z,3.71
2023-01-28T16:43:53.702Z,3.70
2023-01-28T16:47:55.370Z,3.70
2023-01-28T16:51:57.059Z,3.71
2023-01-28T16:55:59.165Z,3.64
2023-01-28T17:00:00.766Z,3.60
2023-01-28T17:04:11.556Z,3.60
2023-01-28T17:08:14.351Z,3.60
2023-01-28T17:12:16.096Z,3.57
2023-01-28T17:16:17.763Z,3.53
2023-01-28T17:20:19.800Z,3.50
2023-01-28T17:24:21.494Z,3.50
2023-01-28T17:28:23.239Z,3.52
2023-01-28T17:32:24.977Z,3.45
2023-01-28T17:36:27.545Z,3.37
2023-01-28T17:40:29.560Z,3.34
2023-01-28T17:44:31.200Z,3.37
2023-01-28T17:48:34.034Z,3.35
2023-01-28T17:52:35.596Z,3.30
2023-01-28T17:56:38.863Z,3.25
2023-01-28T18:00:40.622Z,3.23
2023-01-28T18:04:43.427Z,3.19
2023-01-28T18:08:45.543Z,3.20
2023-01-28T18:12:47.153Z,3.22
2023-01-28T18:16:48.851Z,3.20
2023-01-28T18:21:00.279Z,3.16
2023-01-28T18:25:02.010Z,3.13
2023-01-28T18:29:04.250Z,3.16
2023-01-28T18:33:05.859Z,3.10
2023-01-28T18:37:08.556Z,3.17
2023-01-28T18:41:10.229Z,3.19
2023-01-28T18:45:11.840Z,3.13
2023-01-28T18:49:13.796Z,3.13
2023-01-28T18:53:15.461Z,3.07
2023-01-28T18:57:17.091Z,3.01
2023-01-28T19:01:18.692Z,2.99
2023-01-28T19:05:20.339Z,2.97
2023-01-28T19:09:21.891Z,2.90
2023-01-28T19:13:23.476Z,2.90
2023-01-28T19:17:25.233Z,2.84
2023-01-28T19:21:31.102Z,2.80
2023-01-28T19:25:35.537Z,2.77
2023-01-28T19:29:37.121Z,2.77
2023-01-28T19:33:38.619Z,2.74
2023-01-28T19:37:40.307Z,2.76
2023-01-28T19:41:41.855Z,2.71
2023-01-28T19:45:43.459Z,2.66
2023-01-28T19:49:44.984Z,2.66
2023-01-28T19:53:50.376Z,2.66
2023-01-28T19:57:51.997Z,2.65
2023-01-28T20:01:53.597Z,2.66
2023-01-28T20:05:59.493Z,2.66
2023-01-28T20:10:01.147Z,2.68
2023-01-28T20:14:02.968Z,2.63
2023-01-28T20:18:05.053Z,2.61
2023-01-28T20:22:06.640Z,2.65
2023-01-28T20:26:08.276Z,2.63
2023-01-28T20:30:10.582Z,2.66
2023-01-28T20:34:18.243Z,2.63
2023-01-28T20:38:20.246Z,2.59
2023-01-28T20:42:21.795Z,2.62
2023-01-28T20:46:26.255Z,2.62
2023-01-28T20:50:27.859Z,2.59
2023-01-28T20:54:29.663Z,2.59
2023-01-28T20:58:31.845Z,2.59
2023-01-28T21:02:35.557Z,2.58
2023-01-28T21:06:37.945Z,2.55
2023-01-28T21:10:40.759Z,2.48
2023-01-28T21:14:42.322Z,2.51
2023-01-28T21:18:44.087Z,2.47
2023-01-28T21:22:51.008Z,2.44
2023-01-28T21:26:52.577Z,2.45
2023-01-28T21:30:54.123Z,2.44
2023-01-28T21:34:55.783Z,2.40
2023-01-28T21:39:00.001Z,2.40
2023-01-28T21:43:01.794Z,2.38
2023-01-28T21:47:03.421Z,2.44
2023-01-28T21:51:26.721Z,2.43
2023-01-28T21:55:28.261Z,2.38
2023-01-28T21:59:32.652Z,2.36
2023-01-28T22:03:34.231Z,2.33
2023-01-28T22:07:35.777Z,2.36
2023-01-28T22:11:42.158Z,2.38
2023-01-28T22:15:45.342Z,2.41
2023-01-28T22:19:48.184Z,2.38
2023-01-28T22:23:50.193Z,2.36
2023-01-28T22:27:51.875Z,2.30
2023-01-28T22:31:54.383Z,2.30
2023-01-28T22:35:56.001Z,2.30
2023-01-28T22:39:57.550Z,2.30
2023-01-28T22:44:01.618Z,2.30
2023-01-28T22:48:03.414Z,2.33
2023-01-28T22:52:05.199Z,2.36
2023-01-28T22:56:07.150Z,2.36
2023-01-28T23:00:12.317Z,2.36
2023-01-28T23:04:13.832Z,2.32
2023-01-28T23:08:15.472Z,2.29
2023-01-28T23:12:17.062Z,2.25
2023-01-28T23:16:37.553Z,2.20
2023-01-28T23:20:59.169Z,2.11
2023-01-28T23:25:00.743Z,2.05
2023-01-28T23:29:02.264Z,2.00
2023-01-28T23:33:04.410Z,1.95
2023-01-28T23:37:08.625Z,1.90
2023-01-28T23:41:10.274Z,1.86
2023-01-28T23:45:11.974Z,1.83
2023-01-28T23:49:13.518Z,1.81
2023-01-28T23:53:15.072Z,1.79
2023-01-28T23:57:16.764Z,1.81
